Terminal Aerodrome Forecast
Issued by NWS

Home | Current Version | Previous Version | Graphics & Text | Print | Product List | Glossary On
Versions: 1 2 3 4 5 6 7 8 9 10 11 12 13 14 15 16 17 18 19 20 21
583
FTUS43 KPAH 221523 AAC
TAFCGI
TAF AMD
KCGI 221523Z 2215/2312 28004KT P6SM SCT009
     FM221630 28004KT P6SM SCT040
     FM230200 02003KT P6SM SKC
     FM230800 VRB02KT 4SM BR SKC=

USA.gov is the U.S. government's official web portal to all federal, state and local government web resources and services.